| time (UTC) | temp C | wind direction | speed KPH | gust KPH | rain 1hr cm | rain 24hr cm | rain mn cm | humidity % | barometer mb |
| 20260906063345 | 20 | 350 | 12.9 | 0.0 | 0.00 | 0.00 | 0.00 | 64 | 1018.0 |
| 20260906062004 | 18 | 340 | 12.9 | 0.0 | 0.00 | 0.00 | 0.00 | 68 | 1018.0 |
| 20260906060344 | 18 | 340 | 12.9 | 0.0 | 0.00 | 0.00 | 0.00 | 68 | 1018.0 |
| 20260906054910 | 18 | 340 | 12.9 | 0.0 | 0.00 | 0.00 | 0.00 | 68 | 1018.0 |
| 20260906053344 | 18 | 340 | 12.9 | 0.0 | 0.00 | 0.00 | 0.00 | 68 | 1018.0 |
| 20260906051845 | 17 | 330 | 12.9 | 0.0 | 0.00 | 0.00 | 0.00 | 73 | 1018.0 |
| 20260906050504 | 17 | 330 | 12.9 | 0.0 | 0.00 | 0.00 | 0.00 | 73 | 1018.0 |
| 20260906045004 | 17 | 330 | 9.7 | 0.0 | 0.00 | 0.00 | 0.00 | 77 | 1017.0 |
| 20260906043453 | 17 | 330 | 9.7 | 0.0 | 0.00 | 0.00 | 0.00 | 77 | 1017.0 |
| 20260906042005 | 17 | 350 | 12.9 | 0.0 | 0.00 | 0.00 | 0.00 | 73 | 1017.0 |
| 20260906040404 | 17 | 350 | 12.9 | 0.0 | 0.00 | 0.00 | 0.00 | 73 | 1017.0 |
| 20260906034905 | 17 | 350 | 14.5 | 0.0 | 0.00 | 0.00 | 0.00 | 68 | 1017.0 |
| 20260906033505 | 17 | 350 | 14.5 | 0.0 | 0.00 | 0.00 | 0.00 | 68 | 1017.0 |
| 20260906032004 | 17 | 360 | 24.1 | 0.0 | 0.00 | 0.00 | 0.00 | 68 | 1016.0 |
| 20260906030505 | 17 | 360 | 24.1 | 0.0 | 0.00 | 0.00 | 0.00 | 68 | 1016.0 |
| 20260906024912 | 17 | 350 | 16.1 | 0.0 | 0.00 | 0.00 | 0.00 | 73 | 1016.0 |
| 20260906023345 | 17 | 350 | 16.1 | 0.0 | 0.00 | 0.00 | 0.00 | 73 | 1016.0 |
| 20260906021851 | 18 | 360 | 24.1 | 0.0 | 0.00 | 0.00 | 0.00 | 64 | 1016.0 |
| 20260906020346 | 18 | 360 | 24.1 | 0.0 | 0.00 | 0.00 | 0.00 | 64 | 1016.0 |
| 20260906014846 | 20 | 360 | 22.5 | 0.0 | 0.00 | 0.00 | 0.00 | 60 | 1015.0 |
| 20260906013505 | 20 | 360 | 22.5 | 0.0 | 0.00 | 0.00 | 0.00 | 60 | 1015.0 |
| 20260906011844 | 20 | 360 | 22.5 | 0.0 | 0.00 | 0.00 | 0.00 | 69 | 1015.0 |
| 20260906010344 | 20 | 360 | 22.5 | 0.0 | 0.00 | 0.00 | 0.00 | 69 | 1015.0 |
| 20260906005005 | 21 | 350 | 25.7 | 0.0 | 0.00 | 0.00 | 0.00 | 69 | 1016.0 |
| 20260906003515 | 21 | 350 | 25.7 | 0.0 | 0.00 | 0.00 | 0.00 | 69 | 1016.0 |
| 20260906002005 | 21 | 350 | 22.5 | 0.0 | 0.00 | 0.00 | 0.00 | 64 | 1016.0 |
| 20260906000455 | 21 | 350 | 22.5 | 0.0 | 0.00 | 0.00 | 0.00 | 64 | 1016.0 |
| 20260905234855 | 21 | 350 | 22.5 | 0.0 | 0.00 | 0.00 | 0.00 | 64 | 1015.0 |
| 20260905233344 | 21 | 350 | 22.5 | 0.0 | 0.00 | 0.00 | 0.00 | 64 | 1015.0 |
| 20260905232007 | 22 | 350 | 24.1 | 0.0 | 0.00 | 0.00 | 0.00 | 61 | 1015.0 |
| 20260905230417 | 22 | 350 | 24.1 | 0.0 | 0.00 | 0.00 | 0.00 | 61 | 1015.0 |
| 20260905225006 | 22 | 340 | 27.4 | 0.0 | 0.00 | 0.00 | 0.00 | 61 | 1014.0 |
| 20260905223358 | 22 | 340 | 27.4 | 0.0 | 0.00 | 0.00 | 0.00 | 61 | 1014.0 |
| 20260905221950 | 22 | 330 | 32.2 | 0.0 | 0.00 | 0.00 | 0.00 | 57 | 1014.0 |
| 20260905220505 | 22 | 330 | 32.2 | 0.0 | 0.00 | 0.00 | 0.00 | 57 | 1014.0 |
| 20260905215004 | 22 | 320 | 24.1 | 0.0 | 0.00 | 0.00 | 0.00 | 61 | 1014.0 |
| 20260905213345 | 22 | 320 | 24.1 | 0.0 | 0.00 | 0.00 | 0.00 | 61 | 1014.0 |
| 20260905210344 | 22 | 320 | 17.7 | 0.0 | 0.00 | 0.00 | 0.00 | 61 | 1014.0 |
| 20260905204855 | 22 | 3.2 | 0.0 | 0.00 | 0.00 | 0.00 | 53 | 1014.0 | |
| 20260905203344 | 22 | 3.2 | 0.0 | 0.00 | 0.00 | 0.00 | 53 | 1014.0 | |
| 20260905201844 | 22 | 3.2 | 0.0 | 0.00 | 0.00 | 0.00 | 57 | 1013.0 | |
| 20260905200505 | 22 | 3.2 | 0.0 | 0.00 | 0.00 | 0.00 | 57 | 1013.0 | |
| 20260905194958 | 22 | 100 | 4.8 | 0.0 | 0.00 | 0.00 | 0.00 | 65 | 1013.0 |
| 20260905193345 | 22 | 100 | 4.8 | 0.0 | 0.00 | 0.00 | 0.00 | 65 | 1013.0 |
| 20260905191914 | 23 | 130 | 4.8 | 0.0 | 0.00 | 0.00 | 0.00 | 57 | 1013.0 |
| 20260905190345 | 23 | 130 | 4.8 | 0.0 | 0.00 | 0.00 | 0.00 | 57 | 1013.0 |
| 20260905184842 | 22 | 160 | 11.3 | 0.0 | 0.00 | 0.00 | 0.00 | 61 | 1013.0 |
| 20260905183350 | 22 | 160 | 11.3 | 0.0 | 0.00 | 0.00 | 0.00 | 61 | 1013.0 |
| 20260905181841 | 23 | 160 | 8.0 | 0.0 | 0.00 | 0.00 | 0.00 | 61 | 1013.0 |
| 20260905180341 | 23 | 160 | 8.0 | 0.0 | 0.00 | 0.00 | 0.00 | 61 | 1013.0 |
| 20260905173344 | 25 | 130 | 11.3 | 0.0 | 0.00 | 0.00 | 0.00 | 51 | 1013.0 |
| 20260905170345 | 27 | 190 | 12.9 | 0.0 | 0.00 | 0.00 | 0.00 | 35 | 1013.0 |
| 20260905164845 | 30 | 220 | 14.5 | 0.0 | 0.00 | 0.00 | 0.00 | 31 | 1013.0 |
| 20260905163346 | 30 | 220 | 14.5 | 0.0 | 0.00 | 0.00 | 0.00 | 31 | 1013.0 |
| 20260905161843 | 32 | 220 | 20.9 | 0.0 | 0.00 | 0.00 | 0.00 | 27 | 1012.0 |
| 20260905160345 | 32 | 220 | 20.9 | 0.0 | 0.00 | 0.00 | 0.00 | 27 | 1012.0 |
| 20260905154858 | 32 | 230 | 20.9 | 0.0 | 0.00 | 0.00 | 0.00 | 26 | 1012.0 |
| 20260905153344 | 32 | 230 | 20.9 | 0.0 | 0.00 | 0.00 | 0.00 | 26 | 1012.0 |
| 20260905151845 | 32 | 230 | 17.7 | 0.0 | 0.00 | 0.00 | 0.00 | 26 | 1013.0 |
| 20260905150345 | 32 | 230 | 17.7 | 0.0 | 0.00 | 0.00 | 0.00 | 26 | 1013.0 |
| 20260905144838 | 33 | 250 | 16.1 | 0.0 | 0.00 | 0.00 | 0.00 | 24 | 1013.0 |
| 20260905143344 | 33 | 250 | 16.1 | 0.0 | 0.00 | 0.00 | 0.00 | 24 | 1013.0 |
| 20260905141842 | 32 | 250 | 20.9 | 0.0 | 0.00 | 0.00 | 0.00 | 26 | 1013.0 |
| 20260905140341 | 32 | 250 | 20.9 | 0.0 | 0.00 | 0.00 | 0.00 | 26 | 1013.0 |
| 20260905135002 | 32 | 240 | 14.5 | 0.0 | 0.00 | 0.00 | 0.00 | 26 | 1013.0 |
| 20260905133345 | 32 | 240 | 14.5 | 0.0 | 0.00 | 0.00 | 0.00 | 26 | 1013.0 |
| 20260905131847 | 32 | 210 | 22.5 | 0.0 | 0.00 | 0.00 | 0.00 | 24 | 1013.0 |
| 20260905130406 | 32 | 210 | 22.5 | 0.0 | 0.00 | 0.00 | 0.00 | 24 | 1013.0 |
| 20260905124839 | 32 | 220 | 20.9 | 0.0 | 0.00 | 0.00 | 0.00 | 26 | 1014.0 |
| 20260905123345 | 32 | 220 | 20.9 | 0.0 | 0.00 | 0.00 | 0.00 | 26 | 1014.0 |
| 20260905121912 | 32 | 220 | 20.9 | 0.0 | 0.00 | 0.00 | 0.00 | 26 | 1014.0 |
| 20260905120345 | 32 | 220 | 20.9 | 0.0 | 0.00 | 0.00 | 0.00 | 26 | 1014.0 |
| 20260905114845 | 32 | 220 | 20.9 | 0.0 | 0.00 | 0.00 | 0.00 | 26 | 1014.0 |
| 20260905113344 | 32 | 220 | 20.9 | 0.0 | 0.00 | 0.00 | 0.00 | 26 | 1014.0 |
| 20260905111903 | 32 | 220 | 17.7 | 0.0 | 0.00 | 0.00 | 0.00 | 26 | 1014.0 |
| 20260905110344 | 32 | 220 | 17.7 | 0.0 | 0.00 | 0.00 | 0.00 | 26 | 1014.0 |
| 20260905104845 | 32 | 210 | 16.1 | 0.0 | 0.00 | 0.00 | 0.00 | 27 | 1015.0 |
| 20260905103345 | 32 | 210 | 16.1 | 0.0 | 0.00 | 0.00 | 0.00 | 27 | 1015.0 |
| 20260905101844 | 32 | 210 | 22.5 | 0.0 | 0.00 | 0.00 | 0.00 | 27 | 1015.0 |
| 20260905100345 | 32 | 210 | 22.5 | 0.0 | 0.00 | 0.00 | 0.00 | 27 | 1015.0 |
| 20260905095005 | 32 | 210 | 20.9 | 0.0 | 0.00 | 0.00 | 0.00 | 27 | 1015.0 |
| 20260905093344 | 32 | 210 | 20.9 | 0.0 | 0.00 | 0.00 | 0.00 | 27 | 1015.0 |
| 20260905091845 | 30 | 220 | 20.9 | 0.0 | 0.00 | 0.00 | 0.00 | 33 | 1015.0 |
| 20260905090344 | 30 | 220 | 20.9 | 0.0 | 0.00 | 0.00 | 0.00 | 33 | 1015.0 |
| 20260905084844 | 30 | 240 | 16.1 | 0.0 | 0.00 | 0.00 | 0.00 | 33 | 1016.0 |
| 20260905083345 | 30 | 240 | 16.1 | 0.0 | 0.00 | 0.00 | 0.00 | 33 | 1016.0 |
| 20260905081844 | 30 | 230 | 20.9 | 0.0 | 0.00 | 0.00 | 0.00 | 35 | 1016.0 |
| 20260905080345 | 30 | 230 | 20.9 | 0.0 | 0.00 | 0.00 | 0.00 | 35 | 1016.0 |
| 20260905074844 | 27 | 240 | 16.1 | 0.0 | 0.00 | 0.00 | 0.00 | 40 | 1016.0 |
| 20260905073353 | 27 | 240 | 16.1 | 0.0 | 0.00 | 0.00 | 0.00 | 40 | 1016.0 |
| 20260905071845 | 27 | 240 | 16.1 | 0.0 | 0.00 | 0.00 | 0.00 | 42 | 1016.0 |
| 20260905070344 | 27 | 240 | 16.1 | 0.0 | 0.00 | 0.00 | 0.00 | 42 | 1016.0 |
| 20260905064845 | 26 | 230 | 9.7 | 0.0 | 0.00 | 0.00 | 0.00 | 45 | 1016.0 |